sensor_id;sensor_type;location;lat;lon;timestamp;pressure;altitude;pressure_sealevel;temperature;humidity
8653;BME280;4364;52.426;9.424;2023-04-01T00:01:05;98955.28;;;9.07;100.00
8653;BME280;4364;52.426;9.424;2023-04-01T00:03:33;98952.53;;;8.98;100.00
8653;BME280;4364;52.426;9.424;2023-04-01T00:06:00;98959.00;;;9.11;100.00
8653;BME280;4364;52.426;9.424;2023-04-01T00:08:27;98949.69;;;9.03;100.00
8653;BME280;4364;52.426;9.424;2023-04-01T00:10:55;98951.97;;;9.10;100.00
8653;BME280;4364;52.426;9.424;2023-04-01T00:13:24;98952.91;;;9.05;100.00
8653;BME280;4364;52.426;9.424;2023-04-01T00:15:53;98947.72;;;8.95;100.00
8653;BME280;4364;52.426;9.424;2023-04-01T00:18:22;98946.63;;;8.96;100.00
8653;BME280;4364;52.426;9.424;2023-04-01T00:20:49;98956.41;;;9.06;100.00
8653;BME280;4364;52.426;9.424;2023-04-01T00:23:17;98943.28;;;8.99;100.00
8653;BME280;4364;52.426;9.424;2023-04-01T00:25:45;98956.53;;;9.01;100.00
8653;BME280;4364;52.426;9.424;2023-04-01T00:28:15;98958.94;;;9.02;100.00
8653;BME280;4364;52.426;9.424;2023-04-01T00:30:42;98955.72;;;9.00;100.00
8653;BME280;4364;52.426;9.424;2023-04-01T00:33:09;98954.69;;;9.10;100.00
8653;BME280;4364;52.426;9.424;2023-04-01T00:35:36;98950.81;;;9.02;100.00
8653;BME280;4364;52.426;9.424;2023-04-01T00:38:03;98960.00;;;8.93;100.00
8653;BME280;4364;52.426;9.424;2023-04-01T00:40:38;98954.28;;;8.94;100.00
8653;BME280;4364;52.426;9.424;2023-04-01T00:43:18;98959.25;;;9.01;100.00
8653;BME280;4364;52.426;9.424;2023-04-01T00:45:48;98958.44;;;9.00;100.00
8653;BME280;4364;52.426;9.424;2023-04-01T00:48:21;98947.72;;;8.95;100.00
8653;BME280;4364;52.426;9.424;2023-04-01T00:50:52;98941.81;;;8.93;100.00
8653;BME280;4364;52.426;9.424;2023-04-01T00:53:21;98945.97;;;8.90;100.00
8653;BME280;4364;52.426;9.424;2023-04-01T00:56:10;98954.41;;;8.89;100.00
8653;BME280;4364;52.426;9.424;2023-04-01T00:58:40;98947.84;;;8.90;100.00
8653;BME280;4364;52.426;9.424;2023-04-01T01:01:09;98955.78;;;8.86;100.00
8653;BME280;4364;52.426;9.424;2023-04-01T01:03:36;98958.50;;;8.86;100.00
8653;BME280;4364;52.426;9.424;2023-04-01T01:09:12;98957.72;;;8.86;100.00
8653;BME280;4364;52.426;9.424;2023-04-01T01:11:51;98960.72;;;8.84;100.00
8653;BME280;4364;52.426;9.424;2023-04-01T01:14:34;98960.59;;;8.89;100.00
8653;BME280;4364;52.426;9.424;2023-04-01T01:17:16;98958.38;;;8.92;100.00
8653;BME280;4364;52.426;9.424;2023-04-01T01:20:04;98958.19;;;8.88;100.00
8653;BME280;4364;52.426;9.424;2023-04-01T01:25:32;98955.78;;;8.86;100.00
8653;BME280;4364;52.426;9.424;2023-04-01T01:31:07;98950.38;;;8.86;100.00
8653;BME280;4364;52.426;9.424;2023-04-01T01:36:26;98953.97;;;8.96;100.00
8653;BME280;4364;52.426;9.424;2023-04-01T01:38:56;98952.13;;;8.82;100.00
8653;BME280;4364;52.426;9.424;2023-04-01T01:41:26;98950.97;;;8.83;100.00
8653;BME280;4364;52.426;9.424;2023-04-01T01:43:55;98945.88;;;8.82;100.00
8653;BME280;4364;52.426;9.424;2023-04-01T01:46:24;98948.41;;;8.78;100.00
8653;BME280;4364;52.426;9.424;2023-04-01T01:48:53;98941.41;;;8.77;100.00
8653;BME280;4364;52.426;9.424;2023-04-01T01:51:22;98946.69;;;8.82;100.00
8653;BME280;4364;52.426;9.424;2023-04-01T01:53:50;98942.84;;;8.83;100.00
8653;BME280;4364;52.426;9.424;2023-04-01T01:56:22;98952.78;;;8.88;100.00
8653;BME280;4364;52.426;9.424;2023-04-01T01:59:01;98948.88;;;8.80;100.00
8653;BME280;4364;52.426;9.424;2023-04-01T02:01:31;98943.47;;;8.80;100.00
8653;BME280;4364;52.426;9.424;2023-04-01T02:04:07;98947.59;;;8.78;100.00
8653;BME280;4364;52.426;9.424;2023-04-01T02:06:38;98957.84;;;8.81;100.00
8653;BME280;4364;52.426;9.424;2023-04-01T02:09:09;98957.00;;;8.80;100.00
8653;BME280;4364;52.426;9.424;2023-04-01T02:11:45;98954.22;;;8.85;100.00
8653;BME280;4364;52.426;9.424;2023-04-01T02:14:16;98952.13;;;8.82;100.00
8653;BME280;4364;52.426;9.424;2023-04-01T02:16:51;98948.41;;;8.78;100.00
8653;BME280;4364;52.426;9.424;2023-04-01T02:19:22;98954.63;;;8.79;100.00
8653;BME280;4364;52.426;9.424;2023-04-01T02:21:59;98957.84;;;8.81;100.00
8653;BME280;4364;52.426;9.424;2023-04-01T02:24:30;98958.63;;;8.81;100.00
8653;BME280;4364;52.426;9.424;2023-04-01T02:26:58;98965.84;;;8.86;100.00
8653;BME280;4364;52.426;9.424;2023-04-01T02:29:27;98957.22;;;8.84;100.00
8653;BME280;4364;52.426;9.424;2023-04-01T02:31:54;98958.75;;;8.76;100.00
8653;BME280;4364;52.426;9.424;2023-04-01T02:34:22;98960.72;;;8.84;100.00
8653;BME280;4364;52.426;9.424;2023-04-01T02:36:50;98962.13;;;8.82;100.00
8653;BME280;4364;52.426;9.424;2023-04-01T02:39:17;98960.59;;;8.89;100.00
8653;BME280;4364;52.426;9.424;2023-04-01T02:41:45;98958.50;;;8.86;100.00
8653;BME280;4364;52.426;9.424;2023-04-01T02:44:13;98955.38;;;8.93;100.00
8653;BME280;4364;52.426;9.424;2023-04-01T02:46:40;98959.81;;;8.89;100.00
8653;BME280;4364;52.426;9.424;2023-04-01T02:49:06;98956.41;;;8.83;100.00
8653;BME280;4364;52.426;9.424;2023-04-01T02:51:34;98962.72;;;8.93;100.00
8653;BME280;4364;52.426;9.424;2023-04-01T02:54:00;98962.84;;;8.87;100.00
8653;BME280;4364;52.426;9.424;2023-04-01T02:56:28;98963.25;;;8.81;100.00
8653;BME280;4364;52.426;9.424;2023-04-01T02:58:54;98960.66;;;8.76;100.00
8653;BME280;4364;52.426;9.424;2023-04-01T03:01:21;98964.78;;;8.73;100.00
8653;BME280;4364;52.426;9.424;2023-04-01T03:03:48;98966.00;;;8.67;100.00
8653;BME280;4364;52.426;9.424;2023-04-01T03:06:16;98963.28;;;8.67;100.00
8653;BME280;4364;52.426;9.424;2023-04-01T03:08:44;98967.00;;;8.71;100.00
8653;BME280;4364;52.426;9.424;2023-04-01T03:11:11;98965.38;;;8.70;100.00
8653;BME280;4364;52.426;9.424;2023-04-01T03:13:38;98958.22;;;8.65;100.00
8653;BME280;4364;52.426;9.424;2023-04-01T03:16:05;98966.81;;;8.67;100.00
8653;BME280;4364;52.426;9.424;2023-04-01T03:18:32;98964.28;;;8.71;100.00
8653;BME280;4364;52.426;9.424;2023-04-01T03:21:16;98969.72;;;8.71;100.00
8653;BME280;4364;52.426;9.424;2023-04-01T03:23:43;98974.66;;;8.69;100.00
8653;BME280;4364;52.426;9.424;2023-04-01T03:26:10;98975.50;;;8.78;100.00
8653;BME280;4364;52.426;9.424;2023-04-01T03:28:37;98966.53;;;8.69;100.00
8653;BME280;4364;52.426;9.424;2023-04-01T03:31:03;98966.53;;;8.69;100.00
8653;BME280;4364;52.426;9.424;2023-04-01T03:33:36;98969.91;;;8.75;100.00
8653;BME280;4364;52.426;9.424;2023-04-01T03:36:03;98966.53;;;8.69;100.00
8653;BME280;4364;52.426;9.424;2023-04-01T03:38:35;98973.81;;;8.68;100.00
8653;BME280;4364;52.426;9.424;2023-04-01T03:41:02;98969.22;;;8.69;100.00
8653;BME280;4364;52.426;9.424;2023-04-01T03:43:31;98978.69;;;8.80;100.00
8653;BME280;4364;52.426;9.424;2023-04-01T03:45:59;98979.75;;;8.70;100.00
8653;BME280;4364;52.426;9.424;2023-04-01T03:48:26;98976.53;;;8.68;100.00
8653;BME280;4364;52.426;9.424;2023-04-01T03:50:52;98970.50;;;8.71;100.00
8653;BME280;4364;52.426;9.424;2023-04-01T03:53:19;98972.44;;;8.71;100.00
8653;BME280;4364;52.426;9.424;2023-04-01T03:55:47;98980.38;;;8.67;100.00
8653;BME280;4364;52.426;9.424;2023-04-01T03:58:14;98976.84;;;8.67;100.00
8653;BME280;4364;52.426;9.424;2023-04-01T04:00:41;98979.25;;;8.68;100.00
8653;BME280;4364;52.426;9.424;2023-04-01T04:03:08;98979.25;;;8.68;100.00
8653;BME280;4364;52.426;9.424;2023-04-01T04:05:35;98978.75;;;8.66;100.00
8653;BME280;4364;52.426;9.424;2023-04-01T04:08:02;98986.47;;;8.73;100.00
8653;BME280;4364;52.426;9.424;2023-04-01T04:10:30;98983.75;;;8.73;100.00
8653;BME280;4364;52.426;9.424;2023-04-01T04:12:56;98984.06;;;8.71;100.00
8653;BME280;4364;52.426;9.424;2023-04-01T04:15:27;98988.19;;;8.69;100.00
8653;BME280;4364;52.426;9.424;2023-04-01T04:17:54;98986.88;;;8.66;100.00
8653;BME280;4364;52.426;9.424;2023-04-01T04:20:20;98986.09;;;8.66;100.00
8653;BME280;4364;52.426;9.424;2023-04-01T04:22:47;98990.91;;;8.69;100.00
8653;BME280;4364;52.426;9.424;2023-04-01T04:25:14;98991.22;;;8.67;100.00
8653;BME280;4364;52.426;9.424;2023-04-01T04:27:40;98994.72;;;8.68;100.00
8653;BME280;4364;52.426;9.424;2023-04-01T04:30:10;98989.28;;;8.68;100.00
8653;BME280;4364;52.426;9.424;2023-04-01T04:32:36;98992.78;;;8.68;100.00
8653;BME280;4364;52.426;9.424;2023-04-01T04:35:04;98996.94;;;8.66;100.00
8653;BME280;4364;52.426;9.424;2023-04-01T04:37:33;98989.59;;;8.66;100.00
8653;BME280;4364;52.426;9.424;2023-04-01T04:39:59;99001.22;;;8.67;100.00
8653;BME280;4364;52.426;9.424;2023-04-01T04:42:28;98999.47;;;8.62;100.00
8653;BME280;4364;52.426;9.424;2023-04-01T04:45:01;99000.72;;;8.65;100.00
8653;BME280;4364;52.426;9.424;2023-04-01T04:47:28;98997.84;;;8.61;100.00
8653;BME280;4364;52.426;9.424;2023-04-01T04:49:55;98996.22;;;8.60;100.00
8653;BME280;4364;52.426;9.424;2023-04-01T04:52:22;99000.72;;;8.65;100.00
8653;BME280;4364;52.426;9.424;2023-04-01T04:54:49;99002.84;;;8.68;100.00
8653;BME280;4364;52.426;9.424;2023-04-01T04:57:15;99004.88;;;8.62;100.00
8653;BME280;4364;52.426;9.424;2023-04-01T04:59:49;98999.47;;;8.62;100.00
8653;BME280;4364;52.426;9.424;2023-04-01T05:02:42;99011.09;;;8.63;100.00
8653;BME280;4364;52.426;9.424;2023-04-01T05:05:09;99010.09;;;8.59;100.00
8653;BME280;4364;52.426;9.424;2023-04-01T05:07:36;99012.28;;;8.57;100.00
8653;BME280;4364;52.426;9.424;2023-04-01T05:10:05;99007.19;;;8.55;100.00
8653;BME280;4364;52.426;9.424;2023-04-01T05:12:32;99011.88;;;8.63;100.00
8653;BME280;4364;52.426;9.424;2023-04-01T05:15:04;99011.69;;;8.60;100.00
8653;BME280;4364;52.426;9.424;2023-04-01T05:17:31;99024.44;;;8.59;100.00
8653;BME280;4364;52.426;9.424;2023-04-01T05:19:58;99016.63;;;8.58;100.00
8653;BME280;4364;52.426;9.424;2023-04-01T05:22:26;99014.69;;;8.58;100.00
8653;BME280;4364;52.426;9.424;2023-04-01T05:24:53;99017.41;;;8.58;100.00
8653;BME280;4364;52.426;9.424;2023-04-01T05:27:20;99020.81;;;8.64;100.00
8653;BME280;4364;52.426;9.424;2023-04-01T05:29:47;99021.50;;;8.69;100.00
8653;BME280;4364;52.426;9.424;2023-04-01T05:32:39;99027.13;;;8.73;100.00
8653;BME280;4364;52.426;9.424;2023-04-01T05:35:06;99023.22;;;8.65;100.00
8653;BME280;4364;52.426;9.424;2023-04-01T05:37:34;99026.94;;;8.69;100.00
8653;BME280;4364;52.426;9.424;2023-04-01T05:40:03;99023.91;;;8.71;100.00
8653;BME280;4364;52.426;9.424;2023-04-01T05:42:30;99030.31;;;8.75;100.00
8653;BME280;4364;52.426;9.424;2023-04-01T05:44:56;99035.94;;;8.79;100.00
8653;BME280;4364;52.426;9.424;2023-04-01T05:47:41;99031.19;;;8.84;100.00
8653;BME280;4364;52.426;9.424;2023-04-01T05:50:09;99024.88;;;8.89;100.00
8653;BME280;4364;52.426;9.424;2023-04-01T05:52:37;99032.88;;;8.94;100.00
8653;BME280;4364;52.426;9.424;2023-04-01T05:55:05;99038.00;;;8.96;100.00
8653;BME280;4364;52.426;9.424;2023-04-01T05:57:32;99044.41;;;9.00;100.00
8653;BME280;4364;52.426;9.424;2023-04-01T05:59:59;99040.97;;;9.08;100.00
8653;BME280;4364;52.426;9.424;2023-04-01T06:02:25;99035.84;;;9.06;100.00
8653;BME280;4364;52.426;9.424;2023-04-01T06:05:17;99039.69;;;9.05;100.00
8653;BME280;4364;52.426;9.424;2023-04-01T06:07:45;99042.19;;;9.02;100.00
8653;BME280;4364;52.426;9.424;2023-04-01T06:10:19;99040.78;;;9.04;100.00
8653;BME280;4364;52.426;9.424;2023-04-01T06:12:53;99043.97;;;9.06;100.00
8653;BME280;4364;52.426;9.424;2023-04-01T06:15:51;99048.31;;;9.07;100.00
8653;BME280;4364;52.426;9.424;2023-04-01T06:18:41;99050.31;;;9.02;100.00
8653;BME280;4364;52.426;9.424;2023-04-01T06:27:00;99059.22;;;9.16;100.00
8653;BME280;4364;52.426;9.424;2023-04-01T06:32:18;99054.97;;;9.24;100.00
8653;BME280;4364;52.426;9.424;2023-04-01T06:35:02;99058.00;;;9.22;100.00
8653;BME280;4364;52.426;9.424;2023-04-01T06:43:16;99068.72;;;9.27;100.00
8653;BME280;4364;52.426;9.424;2023-04-01T06:58:24;99076.47;;;9.43;100.00
8653;BME280;4364;52.426;9.424;2023-04-01T07:01:03;99081.47;;;9.50;100.00
8653;BME280;4364;52.426;9.424;2023-04-01T07:03:37;99087.06;;;9.53;100.00
8653;BME280;4364;52.426;9.424;2023-04-01T07:06:12;99084.63;;;9.43;100.00
8653;BME280;4364;52.426;9.424;2023-04-01T07:08:50;99083.81;;;9.42;100.00
8653;BME280;4364;52.426;9.424;2023-04-01T07:11:29;99083.00;;;9.42;100.00
8653;BME280;4364;52.426;9.424;2023-04-01T07:14:04;99083.25;;;9.54;100.00
8653;BME280;4364;52.426;9.424;2023-04-01T07:16:44;99086.47;;;9.56;100.00
8653;BME280;4364;52.426;9.424;2023-04-01T07:22:14;99098.53;;;9.50;100.00
8653;BME280;4364;52.426;9.424;2023-04-01T07:25:16;99094.13;;;9.54;100.00
8653;BME280;4364;52.426;9.424;2023-04-01T07:27:50;99096.53;;;9.56;100.00
8653;BME280;4364;52.426;9.424;2023-04-01T07:30:18;99101.13;;;9.55;100.00
8653;BME280;4364;52.426;9.424;2023-04-01T07:32:56;99103.41;;;9.62;100.00
8653;BME280;4364;52.426;9.424;2023-04-01T07:36:06;99112.13;;;9.73;100.00
8653;BME280;4364;52.426;9.424;2023-04-01T07:44:43;99114.25;;;9.85;100.00
8653;BME280;4364;52.426;9.424;2023-04-01T07:47:29;99124.31;;;9.84;100.00
8653;BME280;4364;52.426;9.424;2023-04-01T07:50:16;99126.78;;;9.94;100.00
8653;BME280;4364;52.426;9.424;2023-04-01T07:52:56;99132.16;;;10.17;100.00
8653;BME280;4364;52.426;9.424;2023-04-01T07:58:14;99136.63;;;10.13;100.00
8653;BME280;4364;52.426;9.424;2023-04-01T08:00:51;99135.19;;;10.15;100.00
8653;BME280;4364;52.426;9.424;2023-04-01T08:03:42;99141.94;;;10.27;100.00
8653;BME280;4364;52.426;9.424;2023-04-01T08:06:28;99150.41;;;10.25;100.00
8653;BME280;4364;52.426;9.424;2023-04-01T08:09:25;99152.16;;;10.21;100.00
8653;BME280;4364;52.426;9.424;2023-04-01T08:16:01;99152.72;;;10.32;100.00
8653;BME280;4364;52.426;9.424;2023-04-01T08:19:00;99145.25;;;10.37;100.00
8653;BME280;4364;52.426;9.424;2023-04-01T08:21:35;99157.25;;;10.45;100.00
8653;BME280;4364;52.426;9.424;2023-04-01T08:24:16;99158.09;;;10.54;100.00
8653;BME280;4364;52.426;9.424;2023-04-01T08:26:49;99162.78;;;10.71;100.00
8653;BME280;4364;52.426;9.424;2023-04-01T08:29:21;99165.16;;;10.64;100.00
8653;BME280;4364;52.426;9.424;2023-04-01T08:32:06;99159.72;;;10.64;100.00
8653;BME280;4364;52.426;9.424;2023-04-01T08:34:38;99166.91;;;10.69;100.00
8653;BME280;4364;52.426;9.424;2023-04-01T08:37:14;99165.50;;;10.71;100.00
8653;BME280;4364;52.426;9.424;2023-04-01T08:39:48;99169.63;;;10.69;98.98
8653;BME280;4364;52.426;9.424;2023-04-01T08:56:18;99179.25;;;10.66;98.24
8653;BME280;4364;52.426;9.424;2023-04-01T08:59:16;99186.00;;;10.78;97.98
8653;BME280;4364;52.426;9.424;2023-04-01T09:02:23;99187.44;;;10.84;98.30
8653;BME280;4364;52.426;9.424;2023-04-01T09:19:51;99194.13;;;11.35;96.54
8653;BME280;4364;52.426;9.424;2023-04-01T09:22:54;99199.09;;;11.33;95.92
8653;BME280;4364;52.426;9.424;2023-04-01T09:25:45;99196.66;;;11.23;96.40
8653;BME280;4364;52.426;9.424;2023-04-01T09:28:20;99196.00;;;11.17;96.76
8653;BME280;4364;52.426;9.424;2023-04-01T09:31:07;99199.00;;;10.98;96.61
8653;BME280;4364;52.426;9.424;2023-04-01T09:34:23;99207.03;;;11.03;96.77
8653;BME280;4364;52.426;9.424;2023-04-01T09:37:21;99209.44;;;11.05;97.93
8653;BME280;4364;52.426;9.424;2023-04-01T09:45:46;99217.75;;;11.08;97.03
8653;BME280;4364;52.426;9.424;2023-04-01T09:51:22;99230.25;;;11.09;97.63
8653;BME280;4364;52.426;9.424;2023-04-01T10:03:23;99243.47;;;11.02;98.64
8653;BME280;4364;52.426;9.424;2023-04-01T10:11:59;99243.47;;;11.02;98.29
8653;BME280;4364;52.426;9.424;2023-04-01T10:20:58;99253.13;;;11.17;98.13
8653;BME280;4364;52.426;9.424;2023-04-01T10:29:41;99263.09;;;11.30;96.40
8653;BME280;4364;52.426;9.424;2023-04-01T10:41:40;99257.69;;;11.57;95.30
8653;BME280;4364;52.426;9.424;2023-04-01T10:59:45;99266.53;;;11.89;92.89
8653;BME280;4364;52.426;9.424;2023-04-01T11:03:17;99273.47;;;11.95;93.69
8653;BME280;4364;52.426;9.424;2023-04-01T11:29:15;99291.03;;;11.89;92.36
8653;BME280;4364;52.426;9.424;2023-04-01T11:32:24;99296.84;;;11.96;92.33
8653;BME280;4364;52.426;9.424;2023-04-01T11:34:57;99301.47;;;12.13;92.41
8653;BME280;4364;52.426;9.424;2023-04-01T11:38:05;99301.47;;;12.13;92.23
8653;BME280;4364;52.426;9.424;2023-04-01T11:40:57;99303.72;;;12.11;90.98
8653;BME280;4364;52.426;9.424;2023-04-01T11:44:20;99299.09;;;12.11;89.22
8653;BME280;4364;52.426;9.424;2023-04-01T11:47:27;99307.25;;;12.02;89.29
8653;BME280;4364;52.426;9.424;2023-04-01T11:50:26;99318.00;;;12.08;90.09
8653;BME280;4364;52.426;9.424;2023-04-01T11:53:18;99321.38;;;12.13;90.22
8653;BME280;4364;52.426;9.424;2023-04-01T11:56:20;99318.47;;;12.27;89.44
8653;BME280;4364;52.426;9.424;2023-04-01T12:09:26;99332.09;;;12.01;87.55
8653;BME280;4364;52.426;9.424;2023-04-01T12:17:30;99340.84;;;11.80;88.94
8653;BME280;4364;52.426;9.424;2023-04-01T12:20:22;99343.44;;;11.85;89.58
8653;BME280;4364;52.426;9.424;2023-04-01T12:42:04;99361.81;;;11.62;93.87
8653;BME280;4364;52.426;9.424;2023-04-01T12:47:39;99375.25;;;11.59;95.03
8653;BME280;4364;52.426;9.424;2023-04-01T12:54:02;99367.88;;;11.59;96.46
8653;BME280;4364;52.426;9.424;2023-04-01T12:57:19;99374.31;;;11.72;96.87
8653;BME280;4364;52.426;9.424;2023-04-01T12:59:42;99372.59;;;11.85;97.22
8653;BME280;4364;52.426;9.424;2023-04-01T13:07:54;99388.50;;;12.00;95.91
8653;BME280;4364;52.426;9.424;2023-04-01T13:10:51;99391.41;;;12.04;96.25
8653;BME280;4364;52.426;9.424;2023-04-01T13:13:43;99398.00;;;12.20;94.38
8653;BME280;4364;52.426;9.424;2023-04-01T13:16:20;99399.91;;;12.11;94.06
8653;BME280;4364;52.426;9.424;2023-04-01T13:19:02;99407.28;;;12.19;94.30
8653;BME280;4364;52.426;9.424;2023-04-01T13:24:45;99411.69;;;11.89;93.52
8653;BME280;4364;52.426;9.424;2023-04-01T13:27:33;99414.06;;;11.73;95.67
8653;BME280;4364;52.426;9.424;2023-04-01T13:30:33;99418.16;;;11.53;97.09
8653;BME280;4364;52.426;9.424;2023-04-01T13:33:17;99424.38;;;11.45;98.27
8653;BME280;4364;52.426;9.424;2023-04-01T13:42:26;99420.88;;;11.22;100.00
8653;BME280;4364;52.426;9.424;2023-04-01T13:44:49;99430.97;;;11.21;100.00
8653;BME280;4364;52.426;9.424;2023-04-01T13:47:30;99426.78;;;11.15;100.00
8653;BME280;4364;52.426;9.424;2023-04-01T13:50:21;99430.72;;;11.09;100.00
8653;BME280;4364;52.426;9.424;2023-04-01T13:53:22;99438.22;;;11.03;100.00
8653;BME280;4364;52.426;9.424;2023-04-01T13:58:50;99456.50;;;10.30;100.00
8653;BME280;4364;52.426;9.424;2023-04-01T14:01:32;99457.97;;;9.86;100.00
8653;BME280;4364;52.426;9.424;2023-04-01T14:04:39;99454.25;;;9.68;100.00
8653;BME280;4364;52.426;9.424;2023-04-01T14:15:42;99486.66;;;9.31;100.00
8653;BME280;4364;52.426;9.424;2023-04-01T14:21:33;99491.81;;;9.14;100.00
8653;BME280;4364;52.426;9.424;2023-04-01T14:27:07;99502.22;;;9.06;100.00
8653;BME280;4364;52.426;9.424;2023-04-01T14:41:25;99537.06;;;8.99;100.00
8653;BME280;4364;52.426;9.424;2023-04-01T14:44:10;99540.69;;;9.08;100.00
8653;BME280;4364;52.426;9.424;2023-04-01T14:47:04;99550.84;;;9.03;100.00
8653;BME280;4364;52.426;9.424;2023-04-01T14:49:46;99542.72;;;8.84;100.00
8653;BME280;4364;52.426;9.424;2023-04-01T14:52:28;99559.72;;;8.70;100.00
8653;BME280;4364;52.426;9.424;2023-04-01T14:54:58;99548.69;;;8.62;100.00
8653;BME280;4364;52.426;9.424;2023-04-01T14:57:28;99563.28;;;8.66;100.00
8653;BME280;4364;52.426;9.424;2023-04-01T15:00:14;99568.91;;;8.50;100.00
8653;BME280;4364;52.426;9.424;2023-04-01T15:03:09;99577.84;;;8.51;100.00
8653;BME280;4364;52.426;9.424;2023-04-01T15:05:39;99578.63;;;8.51;100.00
8653;BME280;4364;52.426;9.424;2023-04-01T15:10:51;99585.84;;;8.37;100.00
8653;BME280;4364;52.426;9.424;2023-04-01T15:16:22;99604.53;;;8.39;100.00
8653;BME280;4364;52.426;9.424;2023-04-01T15:24:44;99628.91;;;8.39;100.00
8653;BME280;4364;52.426;9.424;2023-04-01T15:27:30;99635.75;;;8.31;100.00
8653;BME280;4364;52.426;9.424;2023-04-01T15:35:48;99642.31;;;8.25;100.00
8653;BME280;4364;52.426;9.424;2023-04-01T15:38:53;99650.75;;;8.18;100.00
8653;BME280;4364;52.426;9.424;2023-04-01T15:44:03;99662.50;;;8.08;100.00
8653;BME280;4364;52.426;9.424;2023-04-01T15:46:47;99671.56;;;7.98;100.00
8653;BME280;4364;52.426;9.424;2023-04-01T15:49:37;99674.28;;;7.93;100.00
8653;BME280;4364;52.426;9.424;2023-04-01T15:52:15;99683.31;;;7.84;100.00
8653;BME280;4364;52.426;9.424;2023-04-01T15:54:57;99682.81;;;7.76;100.00
8653;BME280;4364;52.426;9.424;2023-04-01T16:08:59;99723.28;;;7.57;100.00
8653;BME280;4364;52.426;9.424;2023-04-01T16:20:18;99730.97;;;7.35;100.00
8653;BME280;4364;52.426;9.424;2023-04-01T16:26:05;99744.28;;;7.26;100.00
8653;BME280;4364;52.426;9.424;2023-04-01T16:28:53;99744.81;;;7.23;100.00
8653;BME280;4364;52.426;9.424;2023-04-01T16:34:08;99763.28;;;7.05;100.00
8653;BME280;4364;52.426;9.424;2023-04-01T16:36:50;99767.91;;;7.05;100.00
8653;BME280;4364;52.426;9.424;2023-04-01T16:39:28;99771.41;;;7.05;100.00
8653;BME280;4364;52.426;9.424;2023-04-01T16:47:58;99789.84;;;6.83;100.00
8653;BME280;4364;52.426;9.424;2023-04-01T16:50:42;99806.06;;;6.83;100.00
8653;BME280;4364;52.426;9.424;2023-04-01T16:55:50;99813.38;;;6.67;100.00
8653;BME280;4364;52.426;9.424;2023-04-01T17:01:17;99827.16;;;6.65;100.00
8653;BME280;4364;52.426;9.424;2023-04-01T17:03:50;99835.25;;;6.71;100.00
8653;BME280;4364;52.426;9.424;2023-04-01T17:06:43;99841.47;;;6.71;100.00
8653;BME280;4364;52.426;9.424;2023-04-01T17:18:08;99862.56;;;6.64;100.00
8653;BME280;4364;52.426;9.424;2023-04-01T17:21:13;99866.91;;;6.65;100.00
8653;BME280;4364;52.426;9.424;2023-04-01T17:23:53;99888.78;;;6.58;100.00
8653;BME280;4364;52.426;9.424;2023-04-01T17:26:46;99880.38;;;6.55;100.00
8653;BME280;4364;52.426;9.424;2023-04-01T17:32:07;99896.84;;;6.43;100.00
8653;BME280;4364;52.426;9.424;2023-04-01T17:34:51;99905.22;;;6.31;100.00
8653;BME280;4364;52.426;9.424;2023-04-01T17:37:45;99906.56;;;6.23;100.00
8653;BME280;4364;52.426;9.424;2023-04-01T17:45:55;99928.16;;;6.18;100.00
8653;BME280;4364;52.426;9.424;2023-04-01T17:48:34;99941.06;;;6.11;100.00
8653;BME280;4364;52.426;9.424;2023-04-01T17:59:38;99945.84;;;5.93;100.00
8653;BME280;4364;52.426;9.424;2023-04-01T18:08:02;99970.06;;;5.78;100.00
8653;BME280;4364;52.426;9.424;2023-04-01T18:10:57;99986.28;;;5.78;100.00
8653;BME280;4364;52.426;9.424;2023-04-01T18:13:37;99976.22;;;5.63;100.00
8653;BME280;4364;52.426;9.424;2023-04-01T18:16:29;99987.81;;;5.69;100.00
8653;BME280;4364;52.426;9.424;2023-04-01T18:22:19;100013.94;;;5.58;100.00
8653;BME280;4364;52.426;9.424;2023-04-01T18:25:22;100013.59;;;5.49;100.00
8653;BME280;4364;52.426;9.424;2023-04-01T18:28:25;100029.78;;;5.49;100.00
8653;BME280;4364;52.426;9.424;2023-04-01T18:31:05;100037.56;;;5.46;100.00
8653;BME280;4364;52.426;9.424;2023-04-01T18:33:54;100041.28;;;5.39;100.00
8653;BME280;4364;52.426;9.424;2023-04-01T18:39:19;100063.47;;;5.47;100.00
8653;BME280;4364;52.426;9.424;2023-04-01T18:41:59;100072.34;;;5.42;100.00
8653;BME280;4364;52.426;9.424;2023-04-01T18:44:49;100060.56;;;5.53;100.00
8653;BME280;4364;52.426;9.424;2023-04-01T18:47:38;100072.28;;;5.37;100.00
8653;BME280;4364;52.426;9.424;2023-04-01T18:55:46;100099.00;;;5.38;100.00
8653;BME280;4364;52.426;9.424;2023-04-01T19:01:15;100107.09;;;5.38;100.00
8653;BME280;4364;52.426;9.424;2023-04-01T19:06:51;100120.94;;;5.20;100.00
8653;BME280;4364;52.426;9.424;2023-04-01T19:25:56;100160.16;;;5.06;100.00
8653;BME280;4364;52.426;9.424;2023-04-01T19:28:54;100171.47;;;5.08;100.00
8653;BME280;4364;52.426;9.424;2023-04-01T19:36:50;100190.22;;;4.97;100.00
8653;BME280;4364;52.426;9.424;2023-04-01T19:44:41;100201.31;;;5.01;100.00
8653;BME280;4364;52.426;9.424;2023-04-01T19:47:39;100201.16;;;4.86;100.00
8653;BME280;4364;52.426;9.424;2023-04-01T19:52:54;100223.53;;;4.86;100.00
8653;BME280;4364;52.426;9.424;2023-04-01T19:55:34;100235.59;;;4.83;100.00
8653;BME280;4364;52.426;9.424;2023-04-01T20:00:52;100249.31;;;4.82;100.00
8653;BME280;4364;52.426;9.424;2023-04-01T20:03:40;100250.06;;;4.77;100.00
8653;BME280;4364;52.426;9.424;2023-04-01T20:06:47;100254.28;;;4.68;100.00
8653;BME280;4364;52.426;9.424;2023-04-01T20:15:02;100277.47;;;4.52;100.00
8653;BME280;4364;52.426;9.424;2023-04-01T20:17:33;100284.66;;;4.47;100.00
8653;BME280;4364;52.426;9.424;2023-04-01T20:25:18;100309.88;;;4.40;100.00
8653;BME280;4364;52.426;9.424;2023-04-01T20:27:58;100318.50;;;4.42;100.00
8653;BME280;4364;52.426;9.424;2023-04-01T20:30:27;100307.16;;;4.40;100.00
8653;BME280;4364;52.426;9.424;2023-04-01T20:33:15;100318.25;;;4.44;100.00
8653;BME280;4364;52.426;9.424;2023-04-01T20:45:30;100350.47;;;4.22;100.00
8653;BME280;4364;52.426;9.424;2023-04-01T20:50:49;100360.69;;;4.20;100.00
8653;BME280;4364;52.426;9.424;2023-04-01T20:53:20;100353.91;;;4.17;100.00
8653;BME280;4364;52.426;9.424;2023-04-01T20:58:46;100376.94;;;3.96;100.00
8653;BME280;4364;52.426;9.424;2023-04-01T21:01:29;100385.72;;;3.92;100.00
8653;BME280;4364;52.426;9.424;2023-04-01T21:13:02;100394.38;;;3.94;100.00
8653;BME280;4364;52.426;9.424;2023-04-01T21:18:22;100415.28;;;4.03;100.00
8653;BME280;4364;52.426;9.424;2023-04-01T21:21:15;100416.94;;;4.04;100.00
8653;BME280;4364;52.426;9.424;2023-04-01T21:23:58;100433.78;;;4.00;100.00